Terminal Aerodrome Forecast
Issued by NWS

Current Version | Previous Version | Text Only | Print | Product List | Glossary On
Versions: 1 2 3 4 5 6 7 8 9 10 11 12 13 14 15 16 17
000
FTUS41 KCAR 230703 AAA
TAFBHB
TAF AMD
KBHB 230703Z 2307/2406 03011KT P6SM OVC025
     FM231400 05009KT P6SM SCT035 BKN060
     FM232000 05007KT P6SM BKN140=

USA.gov is the U.S. government's official web portal to all federal, state and local government web resources and services.